Time;durP1;ratioP1;P1;durP2;ratioP2;P2;SDS_P1;SDS_P2;PMS_P1;PMS_P2;Temp;Humidity;BMP_temperature;BMP_pressure;BME280_temperature;BME280_humidity;BME280_pressure;Samples;Min_cycle;Max_cycle;Signal;HPM_P1;HPM_P2
2022/03/06 00:04:07;;;;;;;1999.90;999.90;;;;;;;2.94;58.17;102043.47;15435023;28;20050;-61
2022/03/06 00:11:39;;;;;;;;;;;;;;;3.26;57.29;102043.72;15369552;28;20043;-63
2022/03/06 00:19:12;;;;;;;1999.90;999.90;;;;;;;3.07;58.91;102047.81;15399731;28;19926;-62
2022/03/06 00:26:45;;;;;;;1999.90;999.90;;;;;;;3.24;58.22;102028.53;15406846;28;20138;-61
2022/03/06 00:34:18;;;;;;;1999.90;999.90;;;;;;;3.18;57.37;102028.44;15418321;28;20378;-61
2022/03/06 00:41:51;;;;;;;1999.90;999.90;;;;;;;3.30;57.98;102039.38;15434339;28;20039;-61
2022/03/06 00:49:24;;;;;;;1999.90;999.90;;;;;;;3.46;58.04;102041.28;15482107;23;20554;-61
2022/03/06 00:56:56;;;;;;;;;;;;;;;3.35;59.09;102035.88;15472562;28;20050;-57
2022/03/06 01:04:30;;;;;;;1999.90;999.90;;;;;;;2.84;60.53;102035.03;15437567;28;19922;-54
2022/03/06 01:12:01;;;;;;;;;;;;;;;3.55;58.33;102041.69;15455267;28;20573;-62
2022/03/06 01:19:35;;;;;;;1999.90;999.90;;;;;;;2.99;59.89;102045.47;15458568;28;19925;-57
2022/03/06 01:27:07;;;;;;;1999.90;999.90;;;;;;;2.90;60.04;102048.63;15456731;28;20079;-60
2022/03/06 01:34:41;;;;;;;1999.90;999.90;;;;;;;3.19;58.94;102032.03;15456610;28;20079;-58
2022/03/06 01:42:13;;;;;;;1999.90;999.90;;;;;;;3.34;59.25;102025.91;15429451;28;20185;-60
2022/03/06 01:49:46;;;;;;;1999.90;999.90;;;;;;;3.57;57.58;102031.22;15455936;28;20039;-60
2022/03/06 01:57:18;;;;;;;;;;;;;;;3.63;58.43;102037.63;15423002;28;20062;-60
2022/03/06 02:04:52;;;;;;;1999.90;999.90;;;;;;;3.29;59.63;102029.41;15463885;28;19969;-59
2022/03/06 02:12:24;;;;;;;;;;;;;;;3.35;58.61;102028.44;15448124;28;20451;-62
2022/03/06 02:20:00;;;;;;;1999.90;999.90;;;;;;;3.22;57.58;102025.16;15492275;28;19926;-62
2022/03/06 02:27:34;;;;;;;1999.90;999.90;;;;;;;3.40;56.81;102020.19;15454416;28;20066;-60
2022/03/06 02:35:08;;;;;;;1999.90;999.90;;;;;;;3.17;57.43;102012.13;15453049;28;20050;-61
2022/03/06 02:42:44;;;;;;;1999.90;999.90;;;;;;;3.49;56.37;102009.56;15444007;28;20046;-60
2022/03/06 02:50:19;;;;;;;1999.90;999.90;;;;;;;3.18;56.29;102006.34;15441574;28;20047;-61
2022/03/06 02:57:53;;;;;;;1999.90;999.90;;;;;;;3.51;55.81;102003.78;15433203;28;20047;-60
2022/03/06 03:05:26;;;;;;;1999.90;999.90;;;;;;;3.41;56.26;101991.50;15425790;28;20080;-57
2022/03/06 03:12:59;;;;;;;1999.90;999.90;;;;;;;3.35;55.90;101995.31;15438426;28;20047;-53
2022/03/06 03:20:31;;;;;;;1999.90;999.90;;;;;;;3.27;55.98;101997.66;15457056;28;20068;-55
2022/03/06 03:28:05;;;;;;;1999.90;999.90;;;;;;;3.44;54.48;102002.06;15453740;28;20100;-58
2022/03/06 03:35:37;;;;;;;;;;;;;;;3.18;55.02;102006.34;15437558;28;20050;-57
2022/03/06 03:43:10;;;;;;;1999.90;999.90;;;;;;;3.38;54.56;102011.34;15475099;28;19922;-54
2022/03/06 03:50:42;;;;;;;;;;;;;;;3.46;54.28;102021.97;15400702;28;20086;-60
2022/03/06 03:58:16;;;;;;;1999.90;999.90;;;;;;;3.19;55.23;102023.75;15454731;28;19929;-59
2022/03/06 04:05:48;;;;;;;1999.90;999.90;;;;;;;2.95;55.63;102017.56;15464854;28;20101;-63
2022/03/06 04:13:22;;;;;;;1999.90;999.90;;;;;;;3.08;54.65;102016.41;15428640;28;20114;-55
2022/03/06 04:20:54;;;;;;;1999.90;999.90;;;;;;;2.66;54.62;102010.44;15469595;28;20345;-55
2022/03/06 04:28:28;;;;;;;1999.90;999.90;;;;;;;2.69;54.78;102002.50;15459712;28;20615;-60
2022/03/06 04:36:00;;;;;;;1999.90;999.90;;;;;;;3.12;55.00;102015.63;15454732;28;20373;-58
2022/03/06 04:43:33;;;;;;;1999.90;999.90;;;;;;;2.94;53.71;102020.59;15425572;28;20516;-57
2022/03/06 04:51:05;;;;;;;1999.90;999.90;;;;;;;3.03;53.63;102028.19;15475604;28;20100;-57
2022/03/06 04:58:39;;;;;;;1999.90;999.90;;;;;;;3.44;52.74;102028.84;15485550;28;20414;-56
2022/03/06 05:06:11;;;;;;;1999.90;999.90;;;;;;;3.57;51.92;102031.22;15444601;28;20134;-62
2022/03/06 05:13:44;;;;;;;1999.90;999.90;;;;;;;3.60;52.39;102019.66;15468112;28;20467;-56
2022/03/06 05:21:16;;;;;;;1999.90;999.90;;;;;;;3.14;54.18;102024.50;15435359;28;20043;-57
2022/03/06 05:28:50;;;;;;;1999.90;999.90;;;;;;;2.93;54.59;102029.94;15454424;28;20577;-55
2022/03/06 05:36:23;;;;;;;1999.90;999.90;;;;;;;3.13;52.59;102041.31;15474353;28;20053;-58
2022/03/06 05:43:57;;;;;;;1999.90;999.90;;;;;;;3.34;51.07;102032.28;15481319;28;20051;-54
2022/03/06 05:51:30;;;;;;;;;;;;;;;3.61;50.77;102037.91;15444034;28;20133;-59
2022/03/06 05:59:04;;;;;;;1999.90;999.90;;;;;;;3.32;51.87;102041.88;15447549;28;20245;-56
2022/03/06 06:06:37;;;;;;;1999.90;999.90;;;;;;;2.65;49.17;102028.06;15459929;28;20046;-59
2022/03/06 06:14:11;;;;;;;1999.90;999.90;;;;;;;3.41;49.72;102032.06;15459241;28;20054;-55
2022/03/06 06:21:43;;;;;;;1999.90;999.90;;;;;;;3.23;50.27;102038.72;15460812;28;20339;-58
2022/03/06 06:29:36;;;;;;;1999.90;999.90;;;;;;;3.65;50.04;102030.78;15461944;28;20078;-58
2022/03/06 06:37:23;;;;;;;1999.90;999.90;;;;;;;3.59;49.36;102030.97;15419731;28;20058;-53
2022/03/06 06:45:15;;;;;;;1999.90;999.90;;;;;;;3.79;49.20;102033.16;15447641;23;20141;-63
2022/03/06 06:53:06;;;;;;;1999.90;999.90;;;;;;;3.71;48.33;102038.03;15487084;28;20046;-62
2022/03/06 07:00:42;;;;;;;1999.90;999.90;;;;;;;4.07;47.79;102037.69;15486098;28;20076;-63
2022/03/06 07:08:16;;;;;;;1999.90;999.90;;;;;;;4.13;47.62;102034.72;15488951;28;20054;-60
2022/03/06 07:15:51;;;;;;;1999.90;999.90;;;;;;;3.91;48.77;102056.81;15485134;28;20105;-63
2022/03/06 07:23:24;;;;;;;1999.90;999.90;;;;;;;4.13;47.46;102054.03;15484854;28;20305;-62
2022/03/06 07:31:01;;;;;;;1999.90;999.90;;;;;;;3.97;48.16;102050.28;15486470;28;20054;-62
2022/03/06 07:38:41;;;;;;;1999.90;999.90;;;;;;;3.87;46.17;102057.59;15493237;28;20042;-62
2022/03/06 07:46:15;;;;;;;1999.90;999.90;;;;;;;3.99;47.65;102064.66;15497641;28;20495;-63
2022/03/06 07:53:47;;;;;;;;;;;;;;;4.20;47.45;102059.38;15497324;28;20038;-63
2022/03/06 08:01:22;;;;;;;1999.90;999.90;;;;;;;4.17;47.29;102059.88;15497915;28;19922;-61
2022/03/06 08:08:55;;;;;;;1999.90;999.90;;;;;;;4.60;45.46;102068.16;15490331;28;20506;-61
2022/03/06 08:16:28;;;;;;;1999.90;999.90;;;;;;;3.87;43.65;102079.69;15463870;28;20411;-62
2022/03/06 08:24:00;;;;;;;;;;;;;;;3.97;44.66;102068.78;15495998;28;20502;-61
2022/03/06 08:31:34;;;;;;;1999.90;999.90;;;;;;;3.48;43.16;102076.91;15490307;28;19922;-61
2022/03/06 08:39:06;;;;;;;;;;;;;;;3.99;43.01;102084.00;15494196;28;20495;-64
2022/03/06 08:46:39;;;;;;;1999.90;999.90;;;;;;;4.01;43.44;102086.50;15493034;28;19922;-62
2022/03/06 08:54:11;;;;;;;1999.90;999.90;;;;;;;3.80;43.47;102096.44;15494473;28;20038;-61
2022/03/06 09:01:46;;;;;;;1999.90;999.90;;;;;;;4.23;43.60;102095.63;15494188;28;20120;-62
2022/03/06 09:09:19;;;;;;;1999.90;999.90;;;;;;;4.53;44.81;102088.78;15493005;28;20046;-62
2022/03/06 09:16:53;;;;;;;1999.90;999.90;;;;;;;4.15;46.01;102096.06;15494900;28;20039;-62
2022/03/06 09:24:25;;;;;;;1999.90;999.90;;;;;;;3.97;46.34;102090.88;15493458;28;20336;-62
2022/03/06 09:31:59;;;;;;;1999.90;999.90;;;;;;;4.11;46.23;102092.16;15491975;28;20042;-62
2022/03/06 09:39:31;;;;;;;1999.90;999.90;;;;;;;4.44;45.83;102096.69;15490746;28;20054;-61
2022/03/06 09:47:06;;;;;;;1999.90;999.90;;;;;;;4.45;46.92;102097.53;15490833;28;20388;-63
2022/03/06 09:54:39;;;;;;;1999.90;999.90;;;;;;;4.56;47.43;102091.03;15473852;28;20046;-62
2022/03/06 10:02:12;;;;;;;1999.90;999.90;;;;;;;4.91;47.08;102105.25;15480876;28;20400;-63
2022/03/06 10:09:46;;;;;;;1999.90;999.90;;;;;;;4.80;47.38;102105.41;15489223;28;20047;-62
2022/03/06 10:17:21;;;;;;;1999.90;999.90;;;;;;;4.92;46.64;102095.84;15489028;28;20034;-61
2022/03/06 10:24:55;;;;;;;1999.90;999.90;;;;;;;4.70;47.06;102106.13;15489849;28;20038;-61
2022/03/06 10:32:42;;;;;;;1999.90;999.90;;;;;;;4.98;46.65;102098.66;15486303;28;20286;-62
2022/03/06 10:40:14;;;;;;;1999.90;999.90;;;;;;;4.72;46.36;102098.41;15486764;28;20081;-61
2022/03/06 10:47:48;;;;;;;1999.90;999.90;;;;;;;4.72;47.00;102095.66;15486364;28;20507;-60
2022/03/06 10:55:31;;;;;;;;;;;;;;;4.83;45.62;102100.19;15488814;28;20050;-59
2022/03/06 11:03:07;;;;;;;;;;;;;;;4.79;46.87;102106.47;15487998;28;19926;-62
2022/03/06 11:10:40;;;;;;;1999.90;999.90;;;;;;;4.55;45.49;102098.50;15454264;28;19921;-63
2022/03/06 11:18:14;;;;;;;1999.90;999.90;;;;;;;4.49;45.52;102102.31;15470940;28;20049;-63
2022/03/06 11:26:01;;;;;;;1999.90;999.90;;;;;;;4.97;45.68;102084.00;15485571;28;20053;-61
2022/03/06 11:33:35;;;;;;;1999.90;999.90;;;;;;;4.84;45.46;102089.94;15448727;28;20039;-63
2022/03/06 11:41:11;;;;;;;1999.90;999.90;;;;;;;5.14;44.93;102081.94;15485808;28;20047;-63
2022/03/06 11:49:12;;;;;;;1999.90;999.90;;;;;;;5.34;43.66;102072.13;15485322;28;20183;-63
2022/03/06 11:56:50;;;;;;;1999.90;999.90;;;;;;;5.42;44.01;102064.19;15499789;28;20050;-62
2022/03/06 12:04:30;;;;;;;1999.90;999.90;;;;;;;5.47;43.23;102049.53;15500333;28;20101;-62
2022/03/06 12:12:04;;;;;;;1999.90;999.90;;;;;;;5.87;42.46;102060.03;15484840;28;20130;-62
2022/03/06 12:20:25;;;;;;;1999.90;999.90;;;;;;;5.89;41.46;102055.03;15467705;28;20047;-63
2022/03/06 12:28:22;;;;;;;1999.90;999.90;;;;;;;5.75;41.54;102056.63;15486793;28;20411;-63
2022/03/06 12:36:09;;;;;;;1999.90;999.90;;;;;;;5.77;40.89;102046.13;15496365;28;20054;-62
2022/03/06 12:43:47;;;;;;;1999.90;999.90;;;;;;;6.03;40.96;102044.31;15495171;28;20486;-63
2022/03/06 12:51:39;;;;;;;1999.90;999.90;;;;;;;6.39;40.56;102028.66;15497390;28;20046;-59
2022/03/06 12:59:16;;;;;;;1999.90;999.90;;;;;;;6.03;41.07;102031.28;15495295;28;20171;-60
2022/03/06 13:06:50;;;;;;;1999.90;999.90;;;;;;;5.29;41.18;102030.56;15496869;28;20370;-61
2022/03/06 13:14:34;;;;;;;1999.90;999.90;;;;;;;5.35;40.84;102027.56;15501493;28;20054;-63
2022/03/06 13:22:10;;;;;;;1999.90;999.90;;;;;;;5.53;40.92;102039.34;15520038;28;20042;-61
2022/03/06 13:29:42;;;;;;;1999.90;999.90;;;;;;;5.15;41.03;102032.97;15519019;28;20145;-60
2022/03/06 13:37:17;;;;;;;1999.90;999.90;;;;;;;5.91;40.83;102032.63;15492576;28;20565;-61
2022/03/06 13:44:58;;;;;;;1999.90;999.90;;;;;;;5.10;43.18;102027.38;15490627;28;20537;-61
2022/03/06 13:52:37;;;;;;;1999.90;999.90;;;;;;;5.32;42.44;102019.00;15490159;28;20072;-56
2022/03/06 14:00:23;;;;;;;1999.90;999.90;;;;;;;5.36;43.17;102031.19;15489464;28;20057;-61
2022/03/06 14:08:10;;;;;;;1999.90;999.90;;;;;;;5.05;43.75;102025.41;15490459;28;20042;-62
2022/03/06 14:15:42;;;;;;;1999.90;999.90;;;;;;;5.58;43.25;102022.72;15489054;28;20285;-62
2022/03/06 14:23:15;;;;;;;1999.90;999.90;;;;;;;5.06;44.88;102031.78;15477069;28;20034;-62
2022/03/06 14:30:48;;;;;;;1999.90;999.90;;;;;;;5.33;44.02;102012.34;15488687;28;20042;-60
2022/03/06 14:38:22;;;;;;;1999.90;999.90;;;;;;;5.38;44.86;102017.91;15487908;28;20087;-60
2022/03/06 14:45:54;;;;;;;1999.90;999.90;;;;;;;5.56;44.89;102020.25;15489478;28;20047;-61
2022/03/06 14:53:29;;;;;;;1999.90;999.90;;;;;;;4.92;45.50;102018.41;15470400;28;20295;-59
2022/03/06 15:01:03;;;;;;;1999.90;999.90;;;;;;;5.04;45.52;102026.50;15487395;28;20050;-61
2022/03/06 15:08:36;;;;;;;;;;;;;;;4.89;46.44;102020.84;15486658;28;20049;-60
2022/03/06 15:16:10;;;;;;;1999.90;999.90;;;;;;;5.10;45.55;102027.38;15487764;28;19928;-61
2022/03/06 15:23:44;;;;;;;1999.90;999.90;;;;;;;5.29;45.58;102022.25;15486776;28;20038;-61
2022/03/06 15:31:18;;;;;;;1999.90;999.90;;;;;;;4.88;47.54;102031.06;15485327;28;20050;-61
2022/03/06 15:38:51;;;;;;;1999.90;999.90;;;;;;;4.75;47.75;102025.16;15488387;28;20046;-62
2022/03/06 15:46:23;;;;;;;;;;;;;;;4.70;47.94;102028.72;15445316;28;20038;-58
2022/03/06 15:53:57;;;;;;;1999.90;999.90;;;;;;;4.65;48.35;102020.34;15484935;28;20008;-58
2022/03/06 16:01:29;;;;;;;;;;;;;;;4.72;49.12;102023.75;15458925;28;20054;-63
2022/03/06 16:09:03;;;;;;;1999.90;999.90;;;;;;;4.77;48.83;102017.41;15497350;28;20414;-61
2022/03/06 16:16:35;;;;;;;1999.90;999.90;;;;;;;4.92;47.86;102026.69;15496241;28;20467;-63
2022/03/06 16:24:10;;;;;;;1999.90;999.90;;;;;;;5.04;47.97;102026.50;15480874;28;20406;-56
2022/03/06 16:31:42;;;;;;;1999.90;999.90;;;;;;;4.60;49.12;102020.31;15498304;28;20514;-60
2022/03/06 16:39:15;;;;;;;1999.90;999.90;;;;;;;4.99;48.20;102029.22;15494333;28;20046;-63
2022/03/06 16:46:48;;;;;;;1999.90;999.90;;;;;;;5.10;48.31;102032.91;15494923;28;20057;-59
2022/03/06 16:54:21;;;;;;;1999.90;999.90;;;;;;;4.48;50.01;102037.06;15486356;28;20101;-58
2022/03/06 17:01:53;;;;;;;1999.90;999.90;;;;;;;4.95;48.17;102024.50;15510435;28;20471;-59
2022/03/06 17:09:27;;;;;;;1999.90;999.90;;;;;;;4.81;49.39;102036.00;15490235;28;20082;-59
2022/03/06 17:16:59;;;;;;;1999.90;999.90;;;;;;;4.98;48.36;102046.91;15433609;28;20038;-61
2022/03/06 17:24:34;;;;;;;1999.90;999.90;;;;;;;4.99;48.95;102051.34;15439978;28;20351;-61
2022/03/06 17:32:07;;;;;;;1999.90;999.90;;;;;;;4.91;49.31;102047.16;15492274;28;20134;-62
2022/03/06 17:39:40;;;;;;;1999.90;999.90;;;;;;;5.05;48.94;102053.06;15491922;28;20129;-61
2022/03/06 17:47:13;;;;;;;1999.90;999.90;;;;;;;4.99;49.03;102054.13;15490672;28;20031;-57
2022/03/06 17:54:46;;;;;;;1999.90;999.90;;;;;;;5.02;49.61;102064.69;15491075;28;20050;-60
2022/03/06 18:02:18;;;;;;;1999.90;999.90;;;;;;;4.90;49.46;102055.72;15492784;28;20411;-58
2022/03/06 18:09:52;;;;;;;1999.90;999.90;;;;;;;4.97;49.77;102061.03;15491023;28;20161;-60
2022/03/06 18:17:24;;;;;;;1999.90;999.90;;;;;;;4.87;50.05;102059.00;15488786;28;20046;-62
2022/03/06 18:24:58;;;;;;;1999.90;999.90;;;;;;;4.93;50.50;102069.84;15494386;28;20046;-62
2022/03/06 18:32:30;;;;;;;1999.90;999.90;;;;;;;4.89;50.30;102079.75;15488714;28;20046;-62
2022/03/06 18:40:07;;;;;;;1999.90;999.90;;;;;;;5.04;49.77;102079.09;15506102;28;20093;-63
2022/03/06 18:47:39;;;;;;;1999.90;999.90;;;;;;;4.98;49.93;102085.66;15488446;28;20044;-61
2022/03/06 18:55:16;;;;;;;1999.90;999.90;;;;;;;4.89;49.85;102074.22;15487404;28;20309;-63
2022/03/06 19:02:48;;;;;;;1999.90;999.90;;;;;;;4.88;50.12;102078.09;15488078;28;20046;-62
2022/03/06 19:10:23;;;;;;;;;;;;;;;5.01;50.45;102089.84;15488767;28;20050;-65
2022/03/06 19:17:57;;;;;;;1999.90;999.90;;;;;;;4.79;50.85;102082.41;15485865;28;19929;-61
2022/03/06 19:25:39;;;;;;;1999.90;999.90;;;;;;;4.58;51.90;102089.66;15485729;28;20046;-63
2022/03/06 19:33:31;;;;;;;;;;;;;;;4.35;52.15;102089.97;15497790;28;20377;-64
2022/03/06 19:41:12;;;;;;;1999.90;999.90;;;;;;;4.59;52.55;102099.66;15506007;28;19949;-64
2022/03/06 19:48:46;;;;;;;1999.90;999.90;;;;;;;4.46;52.94;102105.56;15489410;28;20527;-65
2022/03/06 19:56:20;;;;;;;1999.90;999.90;;;;;;;4.55;53.22;102109.53;15505799;28;20526;-63
2022/03/06 20:03:54;;;;;;;1999.90;999.90;;;;;;;4.57;53.54;102112.88;15504486;28;20034;-59
2022/03/06 20:11:28;;;;;;;;;;;;;;;4.72;52.07;102103.94;15505401;28;20499;-60
2022/03/06 20:19:02;;;;;;;1999.90;999.90;;;;;;;4.70;52.67;102114.44;15494713;28;20402;-59
2022/03/06 20:26:36;;;;;;;;;;;;;;;4.53;54.35;102114.50;15505983;28;20503;-65
2022/03/06 20:34:09;;;;;;;1999.90;999.90;;;;;;;4.44;52.85;102118.81;15503575;28;20020;-63
2022/03/06 20:41:42;;;;;;;1999.90;999.90;;;;;;;4.37;53.34;102120.09;15503197;28;20042;-67
2022/03/06 20:49:14;;;;;;;1999.90;999.90;;;;;;;4.53;53.04;102124.72;15495733;28;20275;-62
2022/03/06 20:56:49;;;;;;;1999.90;999.90;;;;;;;4.60;53.21;102125.38;15473293;28;20113;-59
2022/03/06 21:04:21;;;;;;;;;;;;;;;4.67;53.30;102120.47;15493639;28;20301;-63
2022/03/06 21:11:59;;;;;;;1999.90;999.90;;;;;;;4.41;54.48;102111.06;15493171;28;19929;-61
2022/03/06 21:19:32;;;;;;;1999.90;999.90;;;;;;;4.47;53.82;102121.06;15497604;28;20042;-60
2022/03/06 21:27:22;;;;;;;1999.90;999.90;;;;;;;4.57;53.85;102118.41;15493356;28;20093;-64
2022/03/06 21:34:56;;;;;;;1999.90;999.90;;;;;;;4.47;54.07;102125.75;15487207;28;20046;-62
2022/03/06 21:42:30;;;;;;;1999.90;999.90;;;;;;;4.21;54.46;102122.69;15491798;28;20149;-61
2022/03/06 21:50:04;;;;;;;1999.90;999.90;;;;;;;4.34;54.86;102126.97;15492172;28;20674;-62
2022/03/06 21:57:38;;;;;;;1999.90;999.90;;;;;;;4.32;55.32;102131.94;15488436;28;20074;-61
2022/03/06 22:05:10;;;;;;;1999.90;999.90;;;;;;;4.17;55.71;102140.00;15482966;28;20048;-63
2022/03/06 22:12:44;;;;;;;1999.90;999.90;;;;;;;4.29;56.23;102149.03;15491569;28;20073;-63
2022/03/06 22:20:16;;;;;;;1999.90;999.90;;;;;;;4.21;55.99;102132.91;15490514;28;20046;-63
2022/03/06 22:27:49;;;;;;;1999.90;999.90;;;;;;;4.21;55.35;102149.47;15488599;28;20054;-64
2022/03/06 22:35:21;;;;;;;1999.90;999.90;;;;;;;4.27;55.93;102140.16;15483492;28;20038;-62
2022/03/06 22:42:55;;;;;;;1999.90;999.90;;;;;;;4.38;55.58;102141.13;15484956;28;20054;-61
2022/03/06 22:50:27;;;;;;;1999.90;999.90;;;;;;;4.40;54.69;102134.25;15476510;28;20042;-63
2022/03/06 22:58:00;;;;;;;1999.90;999.90;;;;;;;4.16;55.88;102149.41;15477524;28;20415;-63
2022/03/06 23:13:24;;;;;;;1999.90;999.90;;;;;;;4.10;55.54;102144.91;15482870;28;19921;-62
2022/03/06 23:20:56;;;;;;;1999.90;999.90;;;;;;;3.81;56.09;102134.00;15484698;28;20228;-61
2022/03/06 23:28:29;;;;;;;1999.90;999.90;;;;;;;4.15;55.43;102139.44;15481368;28;20042;-63
2022/03/06 23:36:02;;;;;;;1999.90;999.90;;;;;;;4.14;54.85;102132.25;15479554;28;20035;-61
2022/03/06 23:43:35;;;;;;;1999.90;999.90;;;;;;;4.21;55.14;102133.72;15486849;28;20061;-64
2022/03/06 23:51:09;;;;;;;1999.90;999.90;;;;;;;4.16;56.00;102132.81;15487579;28;20043;-61
2022/03/06 23:58:42;;;;;;;;;;;;;;;4.32;55.51;102137.47;15486494;28;20065;-61
